Time;durP1;ratioP1;P1;durP2;ratioP2;P2;SDS_P1;SDS_P2;PMS_P1;PMS_P2;Temp;Humidity;BMP_temperature;BMP_pressure;BME280_temperature;BME280_humidity;BME280_pressure;Samples;Min_cycle;Max_cycle;Signal;HPM_P1;HPM_P2
2022/01/16 00:01:24;;;;;;;358.63;337.50;;;3.10;99.90;;;;;;4396592;32;20192;-62
2022/01/16 00:04:07;;;;;;;341.40;321.37;;;3.00;99.90;;;;;;4390386;32;20143;-66
2022/01/16 00:06:41;;;;;;;333.87;313.53;;;3.00;99.90;;;;;;4390599;32;20135;-65
2022/01/16 00:09:08;;;;;;;349.67;329.00;;;2.90;99.90;;;;;;4383168;32;20535;-66
2022/01/16 00:11:42;;;;;;;352.40;331.37;;;2.90;99.90;;;;;;4410450;32;20130;-65
2022/01/16 00:14:13;;;;;;;350.03;329.73;;;2.90;99.90;;;;;;4410803;32;20144;-64
2022/01/16 00:16:44;;;;;;;343.10;322.87;;;3.00;99.90;;;;;;4399839;32;20189;-62
2022/01/16 00:19:15;;;;;;;352.17;330.60;;;3.00;99.90;;;;;;4395479;32;20163;-61
2022/01/16 00:21:42;;;;;;;345.37;323.70;;;3.00;99.90;;;;;;4395718;32;20160;-64
2022/01/16 00:24:14;;;;;;;342.07;321.43;;;3.00;99.90;;;;;;4395504;32;20198;-63
2022/01/16 00:26:51;;;;;;;336.50;316.30;;;2.90;99.90;;;;;;4395182;32;20523;-64
2022/01/16 00:29:21;;;;;;;346.87;326.97;;;2.90;99.90;;;;;;4395874;32;20217;-66
2022/01/16 00:31:51;;;;;;;329.47;309.60;;;2.90;99.90;;;;;;4410646;32;20185;-63
2022/01/16 00:34:36;;;;;;;333.67;314.20;;;2.90;99.90;;;;;;4411426;32;20151;-65
2022/01/16 00:37:03;;;;;;;333.37;313.63;;;2.90;99.90;;;;;;4410492;32;20579;-63
2022/01/16 00:39:36;;;;;;;319.03;298.77;;;2.80;99.90;;;;;;4409367;32;20143;-64
2022/01/16 00:42:11;;;;;;;316.53;297.57;;;2.80;99.90;;;;;;4411486;32;20153;-63
2022/01/16 00:44:47;;;;;;;331.80;311.87;;;2.70;99.90;;;;;;4411988;32;20517;-62
2022/01/16 00:47:17;;;;;;;324.67;304.77;;;2.70;99.90;;;;;;4405805;32;20170;-65
2022/01/16 00:49:45;;;;;;;319.10;299.80;;;2.70;99.90;;;;;;4395215;32;20141;-63
2022/01/16 00:52:21;;;;;;;340.07;319.63;;;2.70;99.90;;;;;;4395235;32;20148;-62
2022/01/16 00:54:48;;;;;;;337.20;316.63;;;2.70;99.90;;;;;;4406262;32;20145;-65
2022/01/16 00:57:16;;;;;;;368.40;346.63;;;2.70;99.90;;;;;;4410228;32;20143;-64
2022/01/16 00:59:55;;;;;;;370.67;348.30;;;2.70;99.90;;;;;;4410459;32;20496;-62
2022/01/16 01:02:29;;;;;;;368.70;345.80;;;2.80;99.90;;;;;;4411432;32;20219;-65
2022/01/16 01:05:04;;;;;;;352.17;330.77;;;2.80;99.90;;;;;;4396537;32;20198;-62
2022/01/16 01:07:38;;;;;;;352.73;331.13;;;2.80;99.90;;;;;;4395009;32;20195;-64
2022/01/16 01:10:09;;;;;;;375.47;352.83;;;2.80;99.90;;;;;;4395082;32;20139;-63
2022/01/16 01:12:52;;;;;;;368.60;346.83;;;2.80;99.90;;;;;;4398217;32;20497;-65
2022/01/16 01:15:40;;;;;;;345.93;325.37;;;2.80;99.90;;;;;;4409795;32;20147;-65
2022/01/16 01:18:13;;;;;;;345.33;323.27;;;2.90;99.90;;;;;;4410085;32;20137;-65
2022/01/16 01:21:13;;;;;;;350.23;328.13;;;3.00;99.90;;;;;;4408966;32;20143;-65
2022/01/16 01:23:47;;;;;;;370.40;348.10;;;3.00;99.90;;;;;;4407668;32;20545;-63
2022/01/16 01:26:40;;;;;;;355.67;332.83;;;3.00;99.90;;;;;;4407572;32;20162;-61
2022/01/16 01:29:17;;;;;;;348.43;326.97;;;3.00;99.90;;;;;;4407694;32;20142;-63
2022/01/16 01:31:45;;;;;;;358.60;337.07;;;2.90;99.90;;;;;;4408043;32;20467;-63
2022/01/16 01:34:12;;;;;;;367.27;344.33;;;2.90;99.90;;;;;;4407448;32;20473;-63
2022/01/16 01:36:47;;;;;;;355.53;332.87;;;2.90;99.90;;;;;;4397471;32;20602;-64
2022/01/16 01:39:15;;;;;;;386.23;362.57;;;2.90;99.90;;;;;;4392702;32;20220;-65
2022/01/16 01:42:05;;;;;;;379.97;356.13;;;3.00;99.90;;;;;;4392255;32;20635;-66
2022/01/16 01:53:08;;;;;;;357.63;334.93;;;3.10;99.90;;;;;;4393241;32;20207;-64
2022/01/16 01:55:45;;;;;;;359.10;335.70;;;3.10;99.90;;;;;;4392195;32;20170;-63
2022/01/16 01:58:23;;;;;;;360.80;338.17;;;3.00;99.90;;;;;;4392540;32;20209;-61
2022/01/16 02:00:50;;;;;;;355.17;333.13;;;3.10;99.90;;;;;;4392073;32;20164;-64
2022/01/16 02:03:35;;;;;;;380.17;357.33;;;3.10;99.90;;;;;;4392268;32;20414;-63
2022/01/16 02:06:04;;;;;;;372.67;350.40;;;3.10;99.90;;;;;;4391773;32;20228;-64
2022/01/16 02:08:45;;;;;;;370.63;346.70;;;3.00;99.90;;;;;;4391394;32;20158;-63
2022/01/16 02:11:13;;;;;;;373.00;349.23;;;3.10;99.90;;;;;;4391829;32;20137;-64
2022/01/16 02:13:52;;;;;;;387.67;363.93;;;3.10;99.90;;;;;;4391671;32;20137;-64
2022/01/16 02:28:05;;;;;;;358.57;335.07;;;3.20;99.90;;;;;;4392750;32;20471;-65
2022/01/16 02:36:26;;;;;;;383.63;357.40;;;3.20;99.90;;;;;;4392796;32;20153;-65
2022/01/16 02:39:01;;;;;;;390.30;364.93;;;3.20;99.90;;;;;;4394256;32;20165;-64
2022/01/16 02:41:32;;;;;;;405.03;377.63;;;3.20;99.90;;;;;;4399121;32;20196;-63
2022/01/16 02:44:15;;;;;;;407.70;380.00;;;3.20;99.90;;;;;;4391472;32;20196;-64
2022/01/16 02:46:46;;;;;;;409.00;381.40;;;3.20;99.90;;;;;;4391518;32;20136;-63
2022/01/16 02:49:22;;;;;;;422.13;393.47;;;3.30;99.90;;;;;;4392470;32;20515;-64
2022/01/16 02:51:59;;;;;;;438.80;408.23;;;3.30;99.90;;;;;;4392689;32;20131;-62
2022/01/16 02:54:34;;;;;;;409.90;382.00;;;3.30;99.90;;;;;;4391361;32;20153;-63
2022/01/16 02:57:06;;;;;;;407.47;379.87;;;3.30;99.90;;;;;;4391423;32;20451;-63
2022/01/16 02:59:37;;;;;;;409.60;381.70;;;3.30;99.90;;;;;;4405491;32;20456;-62
2022/01/16 03:02:05;;;;;;;447.53;418.73;;;3.40;99.90;;;;;;4406302;32;20481;-61
2022/01/16 03:04:32;;;;;;;438.13;409.53;;;3.40;99.90;;;;;;4396493;32;20144;-62
2022/01/16 03:07:03;;;;;;;429.07;400.93;;;3.40;99.90;;;;;;4391267;32;20197;-64
2022/01/16 03:09:51;;;;;;;448.30;418.63;;;3.40;99.90;;;;;;4397154;32;20147;-64
2022/01/16 03:12:21;;;;;;;423.53;394.93;;;3.40;99.90;;;;;;4391410;32;20201;-65
2022/01/16 03:14:53;;;;;;;435.43;405.70;;;3.40;99.90;;;;;;4398955;32;20442;-65
2022/01/16 03:17:24;;;;;;;421.23;392.70;;;3.50;99.90;;;;;;4407746;32;20537;-62
2022/01/16 03:22:43;;;;;;;415.60;387.80;;;3.50;99.90;;;;;;4391005;32;20560;-62
2022/01/16 03:25:24;;;;;;;445.37;416.77;;;3.60;99.90;;;;;;4391099;32;20234;-65
2022/01/16 03:28:05;;;;;;;426.73;399.47;;;3.60;99.90;;;;;;4390990;32;20190;-61
2022/01/16 03:30:35;;;;;;;431.33;403.70;;;3.60;99.90;;;;;;4405804;32;20456;-61
2022/01/16 03:33:08;;;;;;;446.47;417.77;;;3.60;99.90;;;;;;4406006;32;20201;-63
2022/01/16 03:35:39;;;;;;;430.23;402.70;;;3.60;99.90;;;;;;4405946;32;20144;-64
2022/01/16 03:38:07;;;;;;;452.40;423.77;;;3.60;99.90;;;;;;4405961;32;20153;-65
2022/01/16 03:40:35;;;;;;;439.47;410.43;;;3.60;99.90;;;;;;4405931;32;20138;-66
2022/01/16 03:43:11;;;;;;;460.73;430.93;;;3.60;99.90;;;;;;4397412;32;20153;-64
2022/01/16 03:45:39;;;;;;;423.30;395.83;;;3.60;99.90;;;;;;4391596;32;20483;-63
2022/01/16 03:48:15;;;;;;;460.47;429.57;;;3.60;99.90;;;;;;4405778;32;20539;-63
2022/01/16 03:50:46;;;;;;;454.00;423.63;;;3.60;99.90;;;;;;4405875;32;20444;-64
2022/01/16 03:53:18;;;;;;;427.57;398.93;;;3.60;99.90;;;;;;4403737;32;20540;-65
2022/01/16 03:55:49;;;;;;;444.40;414.80;;;3.60;99.90;;;;;;4390511;32;20138;-64
2022/01/16 03:58:27;;;;;;;451.50;421.17;;;3.70;99.90;;;;;;4397260;32;20187;-62
2022/01/16 04:01:01;;;;;;;435.93;406.93;;;3.70;99.90;;;;;;4407363;32;20186;-63
2022/01/16 04:03:37;;;;;;;457.17;427.43;;;3.70;99.90;;;;;;4405672;32;20193;-65
2022/01/16 04:06:05;;;;;;;467.07;435.03;;;3.70;99.90;;;;;;4407274;32;20192;-65
2022/01/16 04:08:36;;;;;;;443.37;414.27;;;3.70;99.90;;;;;;4405743;32;20201;-64
2022/01/16 04:11:08;;;;;;;476.33;444.63;;;3.70;99.90;;;;;;4405666;32;20155;-62
2022/01/16 04:13:40;;;;;;;448.70;419.23;;;3.80;99.90;;;;;;4405489;32;20225;-64
2022/01/16 04:16:13;;;;;;;438.67;409.17;;;3.80;99.90;;;;;;4407145;32;20147;-64
2022/01/16 04:18:51;;;;;;;458.37;427.70;;;3.80;99.90;;;;;;4392970;32;20187;-64
2022/01/16 04:21:31;;;;;;;466.50;436.77;;;3.70;99.90;;;;;;4406173;32;20182;-63
2022/01/16 04:24:07;;;;;;;460.47;430.27;;;3.70;99.90;;;;;;4405819;32;20134;-62
2022/01/16 04:26:41;;;;;;;452.80;423.67;;;3.80;99.90;;;;;;4405596;32;20142;-65
2022/01/16 04:29:08;;;;;;;476.67;445.70;;;3.80;99.90;;;;;;4405582;32;20163;-63
2022/01/16 04:31:35;;;;;;;467.53;436.30;;;3.80;99.90;;;;;;4399189;32;20148;-65
2022/01/16 04:34:04;;;;;;;472.50;441.50;;;3.80;99.90;;;;;;4390366;32;20467;-66
2022/01/16 04:36:34;;;;;;;463.67;433.67;;;3.80;99.90;;;;;;4390149;32;20496;-63
2022/01/16 04:39:01;;;;;;;460.60;428.83;;;3.90;99.90;;;;;;4396871;32;20151;-64
2022/01/16 04:44:33;;;;;;;448.83;418.93;;;3.90;99.90;;;;;;4405188;32;20144;-64
2022/01/16 04:47:00;;;;;;;466.60;435.87;;;3.80;99.90;;;;;;4405304;32;20201;-63
2022/01/16 04:49:27;;;;;;;482.13;449.60;;;3.90;99.90;;;;;;4405700;32;20181;-66
2022/01/16 04:52:00;;;;;;;478.40;447.13;;;3.90;99.90;;;;;;4405592;32;20525;-65
2022/01/16 04:54:29;;;;;;;462.67;432.07;;;4.00;99.90;;;;;;4394379;32;20476;-64
2022/01/16 04:57:02;;;;;;;456.87;426.10;;;4.00;99.90;;;;;;4390100;32;20152;-65
2022/01/16 04:59:34;;;;;;;464.47;433.57;;;4.00;99.90;;;;;;4392829;32;20178;-64
2022/01/16 05:02:01;;;;;;;443.90;414.60;;;4.00;99.90;;;;;;4392934;32;20464;-65
2022/01/16 05:04:37;;;;;;;495.03;461.53;;;4.00;99.90;;;;;;4400036;32;20564;-65
2022/01/16 05:07:05;;;;;;;440.73;410.57;;;4.00;99.90;;;;;;4408092;32;20152;-66
2022/01/16 05:09:31;;;;;;;451.00;421.70;;;4.00;99.90;;;;;;4407899;32;20141;-62
2022/01/16 05:12:10;;;;;;;462.40;432.80;;;3.90;99.90;;;;;;4407823;32;20154;-62
2022/01/16 05:17:22;;;;;;;434.80;406.83;;;4.00;99.90;;;;;;4394210;32;20186;-64
2022/01/16 05:19:49;;;;;;;459.30;429.87;;;4.00;99.90;;;;;;4392527;32;20164;-65
2022/01/16 05:22:16;;;;;;;456.50;426.67;;;4.00;99.90;;;;;;4404424;32;20522;-65
2022/01/16 05:24:53;;;;;;;461.03;431.87;;;4.10;99.90;;;;;;4403181;32;20148;-66
2022/01/16 05:27:21;;;;;;;445.87;417.13;;;4.00;99.90;;;;;;4392335;32;20170;-64
2022/01/16 05:29:53;;;;;;;470.27;440.70;;;4.00;99.90;;;;;;4401483;32;20455;-63
2022/01/16 05:32:21;;;;;;;461.10;432.37;;;4.00;99.90;;;;;;4407561;32;20156;-62
2022/01/16 05:34:52;;;;;;;471.30;440.77;;;4.00;99.90;;;;;;4407875;32;20144;-65
2022/01/16 05:37:26;;;;;;;447.37;418.37;;;4.10;99.90;;;;;;4407720;32;20219;-65
2022/01/16 05:40:04;;;;;;;461.47;432.97;;;4.10;99.90;;;;;;4408209;32;20143;-65
2022/01/16 05:42:35;;;;;;;437.50;410.67;;;4.10;99.90;;;;;;4403576;32;20218;-63
2022/01/16 05:45:02;;;;;;;463.40;434.97;;;4.10;99.90;;;;;;4392373;32;20131;-65
2022/01/16 05:47:31;;;;;;;458.03;429.53;;;4.00;99.90;;;;;;4392747;32;20147;-62
2022/01/16 05:50:07;;;;;;;454.17;426.13;;;4.00;99.90;;;;;;4392728;32;20156;-64
2022/01/16 05:52:41;;;;;;;477.17;447.27;;;4.10;99.90;;;;;;4392256;32;20144;-62
2022/01/16 05:55:09;;;;;;;447.47;420.67;;;4.00;99.90;;;;;;4405397;32;20167;-66
2022/01/16 05:57:38;;;;;;;468.27;439.63;;;4.10;99.90;;;;;;4408136;32;20159;-63
2022/01/16 06:00:12;;;;;;;471.13;441.80;;;4.00;99.90;;;;;;4407227;32;20196;-63
2022/01/16 06:02:42;;;;;;;461.20;432.67;;;4.10;99.90;;;;;;4265699;32;4662411;-66
2022/01/16 06:05:24;;;;;;;463.27;434.30;;;4.00;99.90;;;;;;4407086;32;20209;-63
2022/01/16 06:07:54;;;;;;;471.50;442.30;;;4.00;99.90;;;;;;4407485;32;20191;-62
2022/01/16 06:10:21;;;;;;;459.67;431.93;;;4.00;99.90;;;;;;4407384;32;20219;-65
2022/01/16 06:12:55;;;;;;;471.93;442.73;;;4.00;99.90;;;;;;4407279;32;20472;-65
2022/01/16 06:15:30;;;;;;;431.93;406.23;;;4.00;99.90;;;;;;4407765;32;20182;-65
2022/01/16 06:17:58;;;;;;;422.60;396.60;;;3.90;99.90;;;;;;4406257;32;20303;-62
2022/01/16 06:20:28;;;;;;;441.90;414.87;;;3.90;99.90;;;;;;4405219;32;20207;-63
2022/01/16 06:23:01;;;;;;;442.83;416.97;;;3.80;99.90;;;;;;4407035;32;20508;-65
2022/01/16 06:25:31;;;;;;;440.40;414.40;;;3.80;99.90;;;;;;4406912;32;20171;-61
2022/01/16 06:28:13;;;;;;;438.03;411.63;;;3.80;99.90;;;;;;4396910;32;20145;-61
2022/01/16 06:30:48;;;;;;;421.43;397.10;;;3.80;99.90;;;;;;4400082;32;20465;-62
2022/01/16 06:33:21;;;;;;;426.10;400.60;;;3.80;99.90;;;;;;4405614;32;20170;-63
2022/01/16 06:36:01;;;;;;;423.93;399.23;;;3.80;99.90;;;;;;4406944;32;20166;-61
2022/01/16 06:38:28;;;;;;;433.53;408.00;;;3.80;99.90;;;;;;4406898;32;20139;-61
2022/01/16 06:40:59;;;;;;;439.73;414.13;;;3.80;99.90;;;;;;4403440;32;20190;-64
2022/01/16 06:43:31;;;;;;;417.20;392.87;;;3.70;99.90;;;;;;4391529;32;20175;-65
2022/01/16 06:46:01;;;;;;;439.60;414.03;;;3.80;99.90;;;;;;4391468;32;20165;-64
2022/01/16 06:48:34;;;;;;;429.10;403.57;;;3.70;99.90;;;;;;4391627;32;20165;-62
2022/01/16 06:51:03;;;;;;;438.97;412.17;;;3.70;99.90;;;;;;4391268;32;20202;-62
2022/01/16 06:53:33;;;;;;;460.23;432.83;;;3.70;99.90;;;;;;4394461;32;20179;-64
2022/01/16 06:56:01;;;;;;;450.50;424.40;;;3.80;99.90;;;;;;4406629;32;20478;-65
2022/01/16 06:58:29;;;;;;;444.67;419.07;;;3.80;99.90;;;;;;4407404;32;20146;-64
2022/01/16 07:00:58;;;;;;;449.97;424.37;;;3.80;99.90;;;;;;4406448;32;20144;-62
2022/01/16 07:03:36;;;;;;;469.93;443.43;;;3.90;99.90;;;;;;4405605;32;20144;-62
2022/01/16 07:06:09;;;;;;;465.33;438.60;;;3.90;99.90;;;;;;4396942;32;20154;-65
2022/01/16 07:08:41;;;;;;;451.27;425.73;;;3.90;99.90;;;;;;4406656;32;20594;-63
2022/01/16 07:11:08;;;;;;;478.50;450.77;;;3.90;99.90;;;;;;4406210;32;20150;-62
2022/01/16 07:13:36;;;;;;;443.40;417.87;;;4.00;99.90;;;;;;4406202;32;20269;-63
2022/01/16 07:16:06;;;;;;;449.10;423.33;;;4.00;99.90;;;;;;4398039;32;20186;-63
2022/01/16 07:18:33;;;;;;;480.10;452.93;;;4.00;99.90;;;;;;4391829;32;20147;-64
2022/01/16 07:21:13;;;;;;;465.50;438.87;;;4.00;99.90;;;;;;4391228;32;20152;-62
2022/01/16 07:23:46;;;;;;;461.27;434.53;;;4.00;99.90;;;;;;4397908;32;20155;-63
2022/01/16 07:26:20;;;;;;;477.60;449.97;;;4.10;99.90;;;;;;4395531;32;20190;-63
2022/01/16 07:28:55;;;;;;;466.27;439.27;;;4.10;99.90;;;;;;4396344;32;20167;-64
2022/01/16 07:31:34;;;;;;;448.33;423.20;;;4.10;99.90;;;;;;4394740;32;20230;-63
2022/01/16 07:34:04;;;;;;;451.50;426.03;;;4.20;99.90;;;;;;4398627;32;20632;-62
2022/01/16 07:36:39;;;;;;;456.60;430.80;;;4.20;99.90;;;;;;4398446;32;20152;-62
2022/01/16 07:39:09;;;;;;;457.23;431.60;;;4.30;99.90;;;;;;4400850;32;20177;-63
2022/01/16 07:41:39;;;;;;;453.97;429.27;;;4.30;99.90;;;;;;4396269;32;20196;-63
2022/01/16 07:44:17;;;;;;;464.53;439.37;;;4.30;99.90;;;;;;4398598;32;20487;-65
2022/01/16 07:46:46;;;;;;;453.20;428.37;;;4.30;99.90;;;;;;4396517;32;20209;-64
2022/01/16 07:49:22;;;;;;;462.47;437.27;;;4.40;99.90;;;;;;4401243;32;20157;-62
2022/01/16 07:52:06;;;;;;;451.17;426.87;;;4.50;99.90;;;;;;4397656;32;20448;-62
2022/01/16 07:54:36;;;;;;;465.10;440.00;;;4.40;99.90;;;;;;4398264;32;20210;-63
2022/01/16 07:57:08;;;;;;;459.70;434.97;;;4.50;99.90;;;;;;4400207;32;20175;-62
2022/01/16 08:02:38;;;;;;;434.73;411.17;;;4.50;99.90;;;;;;4342094;32;20286;-66
2022/01/16 08:07:56;;;;;;;443.33;419.60;;;4.50;99.90;;;;;;4311079;33;20165;-64
2022/01/16 08:10:25;;;;;;;455.47;431.03;;;4.50;99.90;;;;;;4312194;33;20625;-61
2022/01/16 08:12:59;;;;;;;463.00;438.80;;;4.60;99.90;;;;;;4315006;33;20277;-62
2022/01/16 08:15:37;;;;;;;452.13;428.17;;;4.60;99.90;;;;;;4321180;33;20174;-64
2022/01/16 08:18:04;;;;;;;451.37;427.30;;;4.70;99.90;;;;;;4315592;33;20165;-62
2022/01/16 08:20:43;;;;;;;464.63;440.60;;;4.70;99.90;;;;;;4316375;33;20507;-65
2022/01/16 08:23:15;;;;;;;464.73;440.07;;;4.80;99.90;;;;;;4314140;33;20221;-64
2022/01/16 08:25:42;;;;;;;476.33;451.10;;;4.80;99.90;;;;;;4316324;33;20570;-65
2022/01/16 08:28:08;;;;;;;476.57;452.03;;;4.90;99.90;;;;;;4356078;32;20161;-62
2022/01/16 08:30:37;;;;;;;478.43;454.03;;;4.90;99.90;;;;;;4355526;33;20172;-62
2022/01/16 08:33:09;;;;;;;488.93;463.13;;;4.90;99.90;;;;;;4389527;32;20576;-62
2022/01/16 08:35:44;;;;;;;489.60;463.60;;;4.90;99.90;;;;;;4397520;32;20202;-62
2022/01/16 08:38:18;;;;;;;480.80;456.33;;;5.00;99.90;;;;;;4404431;32;20152;-63
2022/01/16 08:40:45;;;;;;;493.13;467.97;;;5.10;99.90;;;;;;4398799;32;20164;-65
2022/01/16 08:43:12;;;;;;;511.43;485.10;;;5.10;99.90;;;;;;4397288;32;20144;-64
2022/01/16 08:45:46;;;;;;;509.03;483.10;;;5.20;99.90;;;;;;4402167;32;20164;-62
2022/01/16 08:48:20;;;;;;;490.50;464.83;;;5.30;99.90;;;;;;4400081;32;20275;-64
2022/01/16 08:50:47;;;;;;;498.43;472.43;;;5.30;99.90;;;;;;4401407;32;20220;-63
2022/01/16 08:53:18;;;;;;;518.87;492.23;;;5.30;99.90;;;;;;4403678;32;20556;-63
2022/01/16 08:55:48;;;;;;;475.50;452.00;;;5.40;99.90;;;;;;4399839;32;20161;-62
2022/01/16 08:58:23;;;;;;;494.23;469.53;;;5.50;99.90;;;;;;4397591;32;20223;-61
2022/01/16 09:00:53;;;;;;;493.93;469.40;;;5.50;99.90;;;;;;4397397;32;20186;-62
2022/01/16 09:03:23;;;;;;;495.67;470.87;;;5.60;99.90;;;;;;4399380;32;20186;-62
2022/01/16 09:05:55;;;;;;;502.80;477.67;;;5.60;99.90;;;;;;4398384;32;20215;-64
2022/01/16 09:08:25;;;;;;;492.07;467.67;;;5.60;99.90;;;;;;4401094;32;20216;-62
2022/01/16 09:10:59;;;;;;;492.90;468.27;;;5.70;99.90;;;;;;4401612;32;20215;-62
2022/01/16 09:13:26;;;;;;;473.33;450.37;;;5.70;99.90;;;;;;4405915;32;20152;-62
2022/01/16 09:16:03;;;;;;;497.10;472.10;;;5.70;99.90;;;;;;4395718;32;20652;-62
2022/01/16 09:18:33;;;;;;;474.27;451.30;;;5.70;99.90;;;;;;4400287;32;20643;-62
2022/01/16 09:21:09;;;;;;;491.73;467.40;;;5.70;99.90;;;;;;4401025;32;20175;-63
2022/01/16 09:23:39;;;;;;;494.13;469.33;;;5.80;99.90;;;;;;4397423;32;20192;-62
2022/01/16 09:26:10;;;;;;;507.83;482.53;;;5.80;99.90;;;;;;4394765;32;20216;-64
2022/01/16 09:28:46;;;;;;;511.00;485.37;;;5.80;99.90;;;;;;4398774;32;20168;-62
2022/01/16 09:31:15;;;;;;;506.97;481.30;;;5.90;99.90;;;;;;4397765;32;20191;-63
2022/01/16 09:33:50;;;;;;;514.67;488.27;;;5.90;99.90;;;;;;4399448;32;20504;-64
2022/01/16 09:36:17;;;;;;;498.97;473.37;;;6.00;99.90;;;;;;4402244;32;20218;-61
2022/01/16 09:38:46;;;;;;;525.13;497.80;;;6.00;99.90;;;;;;4396738;32;20160;-62
2022/01/16 09:41:13;;;;;;;516.07;489.10;;;6.00;99.90;;;;;;4397881;32;20163;-64
2022/01/16 09:43:44;;;;;;;526.77;498.23;;;6.00;99.90;;;;;;4397453;32;20179;-64
2022/01/16 09:46:16;;;;;;;519.13;491.53;;;6.00;99.90;;;;;;4397549;32;21102;-62
2022/01/16 09:48:44;;;;;;;519.23;491.03;;;6.00;99.90;;;;;;4401697;32;20213;-62
2022/01/16 09:51:21;;;;;;;545.97;515.70;;;6.00;99.90;;;;;;4399281;32;20151;-64
2022/01/16 09:53:48;;;;;;;528.00;498.83;;;6.10;99.90;;;;;;4399522;32;20163;-64
2022/01/16 09:56:18;;;;;;;551.00;519.67;;;6.10;99.90;;;;;;4396165;32;20216;-62
2022/01/16 09:58:44;;;;;;;534.53;504.40;;;6.10;99.90;;;;;;4394065;32;20156;-62
2022/01/16 10:01:16;;;;;;;526.03;496.17;;;6.10;99.90;;;;;;4396398;32;20617;-62
2022/01/16 10:03:45;;;;;;;559.33;527.47;;;6.20;99.90;;;;;;4400479;32;20183;-62
2022/01/16 10:06:15;;;;;;;555.73;523.40;;;6.20;99.90;;;;;;4397839;32;20176;-62
2022/01/16 10:08:45;;;;;;;560.73;528.13;;;6.20;99.90;;;;;;4398943;32;20203;-62
2022/01/16 10:11:34;;;;;;;530.57;499.40;;;6.30;99.90;;;;;;4401534;32;20160;-62
2022/01/16 10:14:08;;;;;;;526.03;495.17;;;6.30;99.90;;;;;;4400140;32;20184;-62
2022/01/16 10:16:46;;;;;;;549.17;516.33;;;6.30;99.90;;;;;;4401803;32;20204;-62
2022/01/16 10:19:25;;;;;;;533.17;502.13;;;6.30;99.90;;;;;;4397180;32;20215;-62
2022/01/16 10:22:08;;;;;;;547.43;515.67;;;6.30;99.90;;;;;;4397203;32;20160;-62
2022/01/16 10:24:39;;;;;;;542.33;511.13;;;6.40;99.90;;;;;;4396743;32;20227;-62
2022/01/16 10:27:17;;;;;;;553.37;520.53;;;6.40;99.90;;;;;;4398638;32;20156;-62
2022/01/16 10:29:53;;;;;;;556.87;523.40;;;6.30;99.90;;;;;;4400609;32;20137;-62
2022/01/16 10:32:32;;;;;;;536.03;504.30;;;6.30;99.90;;;;;;4404258;32;20479;-62
2022/01/16 10:35:12;;;;;;;557.77;524.63;;;6.30;99.90;;;;;;4393262;32;20148;-62
2022/01/16 10:37:43;;;;;;;531.00;498.97;;;6.20;99.90;;;;;;4391045;32;20605;-62
2022/01/16 10:40:21;;;;;;;535.93;503.67;;;6.30;99.90;;;;;;4405758;32;20590;-62
2022/01/16 10:42:53;;;;;;;542.47;510.27;;;6.30;99.90;;;;;;4400793;32;20156;-62
2022/01/16 10:45:30;;;;;;;542.47;510.70;;;6.20;99.90;;;;;;4398159;32;20220;-62
2022/01/16 10:48:01;;;;;;;544.17;511.57;;;6.20;99.90;;;;;;4393897;32;20166;-62
2022/01/16 10:50:45;;;;;;;552.47;519.10;;;6.20;99.90;;;;;;4399558;32;20235;-62
2022/01/16 10:53:19;;;;;;;550.03;516.93;;;6.30;99.90;;;;;;4404272;32;20159;-62
2022/01/16 10:55:57;;;;;;;548.27;515.57;;;6.30;99.90;;;;;;4391429;32;20212;-62
2022/01/16 10:58:31;;;;;;;579.67;543.33;;;6.30;99.90;;;;;;4389946;32;20175;-62
2022/01/16 11:01:03;;;;;;;563.30;528.27;;;6.30;99.90;;;;;;4402607;32;20249;-63
2022/01/16 11:03:47;;;;;;;559.33;525.23;;;6.30;99.90;;;;;;4391076;32;20213;-62
2022/01/16 11:06:14;;;;;;;558.57;524.37;;;6.10;99.90;;;;;;4391168;32;20240;-63
2022/01/16 11:08:52;;;;;;;554.10;520.17;;;6.30;99.90;;;;;;4399011;32;20156;-63
2022/01/16 11:11:20;;;;;;;565.40;529.43;;;6.20;99.90;;;;;;4397514;32;20175;-62
2022/01/16 11:14:03;;;;;;;578.37;542.17;;;6.30;99.90;;;;;;4394329;32;20173;-62
2022/01/16 11:16:49;;;;;;;547.23;512.53;;;6.30;99.90;;;;;;4395170;32;20164;-62
2022/01/16 11:19:25;;;;;;;551.30;517.10;;;6.40;99.90;;;;;;4400729;32;20175;-63
2022/01/16 11:24:48;;;;;;;551.57;517.50;;;6.40;99.90;;;;;;4397681;32;20258;-65
2022/01/16 11:27:19;;;;;;;549.87;516.07;;;6.30;99.90;;;;;;4396889;32;20178;-62
2022/01/16 11:29:47;;;;;;;549.60;515.17;;;6.30;99.90;;;;;;4391340;32;20140;-61
2022/01/16 11:32:23;;;;;;;575.83;540.37;;;6.20;99.90;;;;;;4400134;32;20584;-63
2022/01/16 11:35:08;;;;;;;543.27;509.53;;;6.30;99.90;;;;;;4401217;32;20215;-65
2022/01/16 11:37:55;;;;;;;562.87;527.33;;;6.30;99.90;;;;;;4398912;32;20168;-63
2022/01/16 11:40:49;;;;;;;560.67;525.40;;;6.50;99.90;;;;;;4393760;32;20183;-62
2022/01/16 11:43:24;;;;;;;548.40;513.50;;;6.40;99.90;;;;;;4393148;32;20152;-63
2022/01/16 11:46:06;;;;;;;545.70;510.90;;;6.40;99.90;;;;;;4392098;32;20229;-62
2022/01/16 11:48:50;;;;;;;541.07;506.67;;;6.30;99.90;;;;;;4394510;32;20156;-62
2022/01/16 11:52:07;;;;;;;567.13;529.90;;;6.40;99.90;;;;;;4398572;32;20163;-64
2022/01/16 11:55:02;;;;;;;541.03;507.20;;;6.40;99.90;;;;;;4398461;32;20205;-63
2022/01/16 11:57:33;;;;;;;546.73;511.10;;;6.40;99.90;;;;;;4397628;32;20222;-63
2022/01/16 12:00:12;;;;;;;541.87;507.60;;;6.50;99.90;;;;;;4395574;32;20164;-63
2022/01/16 12:02:41;;;;;;;571.27;534.73;;;6.50;99.90;;;;;;4394890;32;20254;-62
2022/01/16 12:05:22;;;;;;;559.00;523.80;;;6.40;99.90;;;;;;4395782;32;20183;-63
2022/01/16 12:07:54;;;;;;;568.70;532.60;;;6.50;99.90;;;;;;4400780;32;20576;-62
2022/01/16 12:10:50;;;;;;;567.90;531.77;;;6.50;99.90;;;;;;4393536;32;20182;-62
2022/01/16 12:13:48;;;;;;;572.43;536.13;;;6.60;99.90;;;;;;4396186;32;20202;-61
2022/01/16 12:16:52;;;;;;;551.53;515.13;;;6.70;99.90;;;;;;4396932;32;20174;-65
2022/01/16 12:19:50;;;;;;;550.50;515.23;;;6.80;99.90;;;;;;4402675;32;20159;-65
2022/01/16 12:22:53;;;;;;;560.27;525.17;;;6.90;99.90;;;;;;4397047;32;20156;-63
2022/01/16 12:25:24;;;;;;;555.70;520.30;;;7.00;99.90;;;;;;4402198;32;20185;-66
2022/01/16 12:28:00;;;;;;;570.47;535.43;;;7.10;99.90;;;;;;4398010;32;20175;-62
2022/01/16 12:30:38;;;;;;;567.83;532.33;;;7.10;99.90;;;;;;4394581;32;20173;-63
2022/01/16 12:33:30;;;;;;;564.70;529.33;;;7.10;99.90;;;;;;4396156;32;20527;-65
2022/01/16 12:36:13;;;;;;;574.60;538.00;;;7.10;99.90;;;;;;4404604;32;20174;-63
2022/01/16 12:39:08;;;;;;;585.50;549.37;;;7.20;99.90;;;;;;4404872;32;20163;-62
2022/01/16 12:41:46;;;;;;;566.33;531.73;;;7.20;99.90;;;;;;4404276;32;20488;-66
2022/01/16 12:44:16;;;;;;;593.50;556.10;;;7.20;99.90;;;;;;4398588;32;20179;-63
2022/01/16 12:46:52;;;;;;;581.13;544.50;;;7.20;99.90;;;;;;4395270;32;20152;-63
2022/01/16 12:49:26;;;;;;;591.13;554.60;;;7.20;99.90;;;;;;4390507;32;20460;-63
2022/01/16 12:52:04;;;;;;;603.73;567.03;;;7.30;99.90;;;;;;4396694;32;20186;-63
2022/01/16 12:54:34;;;;;;;575.57;540.33;;;7.40;99.90;;;;;;4395553;32;20179;-64
2022/01/16 12:57:07;;;;;;;584.40;549.60;;;7.30;99.90;;;;;;4391369;32;20145;-63
2022/01/16 12:59:42;;;;;;;582.17;547.43;;;7.40;99.90;;;;;;4389753;32;20160;-63
2022/01/16 13:02:17;;;;;;;593.37;557.50;;;7.60;99.90;;;;;;4391094;32;20620;-62
2022/01/16 13:04:57;;;;;;;588.93;553.87;;;7.50;99.90;;;;;;4403844;32;20213;-63
2022/01/16 13:07:31;;;;;;;602.30;566.27;;;7.50;99.90;;;;;;4400318;32;20201;-65
2022/01/16 13:10:00;;;;;;;587.13;553.53;;;7.60;99.90;;;;;;4404489;32;20196;-63
2022/01/16 13:12:34;;;;;;;594.87;559.80;;;7.70;99.90;;;;;;4389397;32;20212;-63
2022/01/16 13:15:03;;;;;;;600.70;566.20;;;7.70;99.90;;;;;;4400366;32;20218;-64
2022/01/16 13:17:36;;;;;;;605.83;570.83;;;7.70;99.90;;;;;;4398288;32;20211;-64
2022/01/16 13:20:21;;;;;;;575.13;541.90;;;7.70;99.90;;;;;;4396207;32;20566;-66
2022/01/16 13:22:49;;;;;;;594.93;560.70;;;7.70;99.90;;;;;;4394971;32;20211;-67
2022/01/16 13:25:19;;;;;;;596.83;562.30;;;7.70;99.90;;;;;;4403611;32;20159;-63
2022/01/16 13:27:50;;;;;;;589.27;555.80;;;7.60;99.90;;;;;;4400076;32;20587;-66
2022/01/16 13:30:24;;;;;;;584.87;551.63;;;7.50;99.90;;;;;;4399881;32;20503;-63
2022/01/16 13:32:51;;;;;;;598.03;563.17;;;7.50;99.90;;;;;;4401872;32;20647;-63
2022/01/16 13:35:26;;;;;;;582.03;549.27;;;7.40;99.90;;;;;;4401525;32;20211;-66